sensor_id;sensor_type;location;lat;lon;timestamp;temperature;humidity
23873;DHT22;42884;50.718;4.630;2023-07-13T00:00:11;17.20;99.90
23873;DHT22;42884;50.718;4.630;2023-07-13T00:02:37;17.20;99.90
23873;DHT22;42884;50.718;4.630;2023-07-13T00:05:02;17.30;99.90
23873;DHT22;42884;50.718;4.630;2023-07-13T00:07:28;17.20;99.90
23873;DHT22;42884;50.718;4.630;2023-07-13T00:09:54;17.20;99.90
23873;DHT22;42884;50.718;4.630;2023-07-13T00:12:26;17.20;99.90
23873;DHT22;42884;50.718;4.630;2023-07-13T00:14:52;17.10;99.90
23873;DHT22;42884;50.718;4.630;2023-07-13T00:17:18;17.10;99.90
23873;DHT22;42884;50.718;4.630;2023-07-13T00:19:44;17.10;99.90
23873;DHT22;42884;50.718;4.630;2023-07-13T00:22:09;17.00;99.90
23873;DHT22;42884;50.718;4.630;2023-07-13T00:24:35;17.00;99.90
23873;DHT22;42884;50.718;4.630;2023-07-13T00:27:01;17.10;99.90
23873;DHT22;42884;50.718;4.630;2023-07-13T00:29:27;17.10;99.90
23873;DHT22;42884;50.718;4.630;2023-07-13T00:31:52;17.10;99.90
23873;DHT22;42884;50.718;4.630;2023-07-13T00:34:18;17.10;99.90
23873;DHT22;42884;50.718;4.630;2023-07-13T00:36:43;17.10;99.90
23873;DHT22;42884;50.718;4.630;2023-07-13T00:39:09;17.00;99.90
23873;DHT22;42884;50.718;4.630;2023-07-13T00:41:34;16.90;99.90
23873;DHT22;42884;50.718;4.630;2023-07-13T00:44:02;17.00;99.90
23873;DHT22;42884;50.718;4.630;2023-07-13T00:46:31;17.00;99.90
23873;DHT22;42884;50.718;4.630;2023-07-13T00:48:59;17.00;99.90
23873;DHT22;42884;50.718;4.630;2023-07-13T00:51:39;16.90;99.90
23873;DHT22;42884;50.718;4.630;2023-07-13T00:54:06;16.90;99.90
23873;DHT22;42884;50.718;4.630;2023-07-13T00:56:34;16.90;99.90
23873;DHT22;42884;50.718;4.630;2023-07-13T00:59:01;16.80;99.90
23873;DHT22;42884;50.718;4.630;2023-07-13T01:01:28;16.80;99.90
23873;DHT22;42884;50.718;4.630;2023-07-13T01:03:53;16.90;99.90
23873;DHT22;42884;50.718;4.630;2023-07-13T01:06:19;16.90;99.90
23873;DHT22;42884;50.718;4.630;2023-07-13T01:08:45;16.80;99.90
23873;DHT22;42884;50.718;4.630;2023-07-13T01:11:10;16.90;99.90
23873;DHT22;42884;50.718;4.630;2023-07-13T01:13:36;16.90;99.90
23873;DHT22;42884;50.718;4.630;2023-07-13T01:16:03;16.80;99.90
23873;DHT22;42884;50.718;4.630;2023-07-13T01:18:29;16.80;99.90
23873;DHT22;42884;50.718;4.630;2023-07-13T01:20:59;16.80;99.90
23873;DHT22;42884;50.718;4.630;2023-07-13T01:23:25;16.80;99.90
23873;DHT22;42884;50.718;4.630;2023-07-13T01:25:52;16.90;99.90
23873;DHT22;42884;50.718;4.630;2023-07-13T01:28:18;16.80;99.90
23873;DHT22;42884;50.718;4.630;2023-07-13T01:30:43;16.80;99.90
23873;DHT22;42884;50.718;4.630;2023-07-13T01:33:11;16.70;99.90
23873;DHT22;42884;50.718;4.630;2023-07-13T01:35:37;16.60;99.90
23873;DHT22;42884;50.718;4.630;2023-07-13T01:38:03;16.60;99.90
23873;DHT22;42884;50.718;4.630;2023-07-13T01:40:29;16.50;99.90
23873;DHT22;42884;50.718;4.630;2023-07-13T01:42:55;16.60;99.90
23873;DHT22;42884;50.718;4.630;2023-07-13T01:45:21;16.60;99.90
23873;DHT22;42884;50.718;4.630;2023-07-13T01:47:46;16.40;99.90
23873;DHT22;42884;50.718;4.630;2023-07-13T01:50:12;16.50;99.90
23873;DHT22;42884;50.718;4.630;2023-07-13T01:52:38;16.50;99.90
23873;DHT22;42884;50.718;4.630;2023-07-13T01:55:03;16.60;99.90
23873;DHT22;42884;50.718;4.630;2023-07-13T01:57:29;16.60;99.90
23873;DHT22;42884;50.718;4.630;2023-07-13T01:59:55;16.50;99.90
23873;DHT22;42884;50.718;4.630;2023-07-13T02:02:20;16.50;99.90
23873;DHT22;42884;50.718;4.630;2023-07-13T02:04:46;16.40;99.90
23873;DHT22;42884;50.718;4.630;2023-07-13T02:07:12;16.40;99.90
23873;DHT22;42884;50.718;4.630;2023-07-13T02:09:37;16.40;99.90
23873;DHT22;42884;50.718;4.630;2023-07-13T02:12:03;16.40;99.90
23873;DHT22;42884;50.718;4.630;2023-07-13T02:14:28;16.40;99.90
23873;DHT22;42884;50.718;4.630;2023-07-13T02:16:54;16.40;99.90
23873;DHT22;42884;50.718;4.630;2023-07-13T02:19:20;16.40;99.90
23873;DHT22;42884;50.718;4.630;2023-07-13T02:21:45;16.30;99.90
23873;DHT22;42884;50.718;4.630;2023-07-13T02:24:11;16.30;99.90
23873;DHT22;42884;50.718;4.630;2023-07-13T02:26:43;16.40;99.90
23873;DHT22;42884;50.718;4.630;2023-07-13T02:29:08;16.30;99.90
23873;DHT22;42884;50.718;4.630;2023-07-13T02:31:34;16.40;99.90
23873;DHT22;42884;50.718;4.630;2023-07-13T02:34:01;16.40;99.90
23873;DHT22;42884;50.718;4.630;2023-07-13T02:36:27;16.30;99.90
23873;DHT22;42884;50.718;4.630;2023-07-13T02:38:52;16.30;99.90
23873;DHT22;42884;50.718;4.630;2023-07-13T02:41:18;16.30;99.90
23873;DHT22;42884;50.718;4.630;2023-07-13T02:43:43;16.30;99.90
23873;DHT22;42884;50.718;4.630;2023-07-13T02:46:09;16.40;99.90
23873;DHT22;42884;50.718;4.630;2023-07-13T02:48:35;16.40;99.90
23873;DHT22;42884;50.718;4.630;2023-07-13T02:51:01;16.30;99.90
23873;DHT22;42884;50.718;4.630;2023-07-13T02:53:27;16.20;99.90
23873;DHT22;42884;50.718;4.630;2023-07-13T02:55:52;16.10;99.90
23873;DHT22;42884;50.718;4.630;2023-07-13T02:58:18;16.10;99.90
23873;DHT22;42884;50.718;4.630;2023-07-13T03:00:44;16.10;99.90
23873;DHT22;42884;50.718;4.630;2023-07-13T03:03:11;16.10;99.90
23873;DHT22;42884;50.718;4.630;2023-07-13T03:05:40;16.10;99.90
23873;DHT22;42884;50.718;4.630;2023-07-13T03:08:06;16.20;99.90
23873;DHT22;42884;50.718;4.630;2023-07-13T03:10:32;16.10;99.90
23873;DHT22;42884;50.718;4.630;2023-07-13T03:12:57;16.10;99.90
23873;DHT22;42884;50.718;4.630;2023-07-13T03:15:23;16.10;99.90
23873;DHT22;42884;50.718;4.630;2023-07-13T03:17:49;16.10;99.90
23873;DHT22;42884;50.718;4.630;2023-07-13T03:20:14;16.10;99.90
23873;DHT22;42884;50.718;4.630;2023-07-13T03:22:40;16.10;99.90
23873;DHT22;42884;50.718;4.630;2023-07-13T03:25:06;16.10;99.90
23873;DHT22;42884;50.718;4.630;2023-07-13T03:27:31;16.10;99.90
23873;DHT22;42884;50.718;4.630;2023-07-13T03:29:57;16.10;99.90
23873;DHT22;42884;50.718;4.630;2023-07-13T03:32:22;16.00;99.90
23873;DHT22;42884;50.718;4.630;2023-07-13T03:34:48;16.00;99.90
23873;DHT22;42884;50.718;4.630;2023-07-13T03:37:14;15.90;99.90
23873;DHT22;42884;50.718;4.630;2023-07-13T03:39:39;15.90;99.90
23873;DHT22;42884;50.718;4.630;2023-07-13T03:42:05;15.90;99.90
23873;DHT22;42884;50.718;4.630;2023-07-13T03:44:31;15.90;99.90
23873;DHT22;42884;50.718;4.630;2023-07-13T03:46:56;15.90;99.90
23873;DHT22;42884;50.718;4.630;2023-07-13T03:49:22;15.90;99.90
23873;DHT22;42884;50.718;4.630;2023-07-13T03:51:47;15.80;99.90
23873;DHT22;42884;50.718;4.630;2023-07-13T03:54:13;15.90;99.90
23873;DHT22;42884;50.718;4.630;2023-07-13T03:56:38;15.90;99.90
23873;DHT22;42884;50.718;4.630;2023-07-13T03:59:04;16.00;99.90
23873;DHT22;42884;50.718;4.630;2023-07-13T04:01:30;16.00;99.90
23873;DHT22;42884;50.718;4.630;2023-07-13T04:03:55;16.10;99.90
23873;DHT22;42884;50.718;4.630;2023-07-13T04:06:22;16.10;99.90
23873;DHT22;42884;50.718;4.630;2023-07-13T04:08:53;16.10;99.90
23873;DHT22;42884;50.718;4.630;2023-07-13T04:11:19;16.10;99.90
23873;DHT22;42884;50.718;4.630;2023-07-13T04:13:47;16.00;99.90
23873;DHT22;42884;50.718;4.630;2023-07-13T04:16:16;16.00;99.90
23873;DHT22;42884;50.718;4.630;2023-07-13T04:18:42;16.20;99.90
23873;DHT22;42884;50.718;4.630;2023-07-13T04:21:08;16.30;99.90
23873;DHT22;42884;50.718;4.630;2023-07-13T04:23:35;16.40;99.90
23873;DHT22;42884;50.718;4.630;2023-07-13T04:26:01;16.40;99.90
23873;DHT22;42884;50.718;4.630;2023-07-13T04:28:26;16.40;99.90
23873;DHT22;42884;50.718;4.630;2023-07-13T04:30:52;16.50;99.90
23873;DHT22;42884;50.718;4.630;2023-07-13T04:33:18;16.50;99.90
23873;DHT22;42884;50.718;4.630;2023-07-13T04:35:48;16.50;99.90
23873;DHT22;42884;50.718;4.630;2023-07-13T04:38:14;16.50;99.90
23873;DHT22;42884;50.718;4.630;2023-07-13T04:40:50;16.40;99.90
23873;DHT22;42884;50.718;4.630;2023-07-13T04:43:16;16.40;99.90
23873;DHT22;42884;50.718;4.630;2023-07-13T04:45:41;16.40;99.90
23873;DHT22;42884;50.718;4.630;2023-07-13T04:48:07;16.50;99.90
23873;DHT22;42884;50.718;4.630;2023-07-13T04:50:35;16.60;99.90
23873;DHT22;42884;50.718;4.630;2023-07-13T04:53:01;16.40;99.90
23873;DHT22;42884;50.718;4.630;2023-07-13T04:55:26;16.60;99.90
23873;DHT22;42884;50.718;4.630;2023-07-13T04:57:56;16.60;99.90
23873;DHT22;42884;50.718;4.630;2023-07-13T05:00:21;16.70;99.90
23873;DHT22;42884;50.718;4.630;2023-07-13T05:02:47;16.80;99.90
23873;DHT22;42884;50.718;4.630;2023-07-13T05:05:12;16.70;99.90
23873;DHT22;42884;50.718;4.630;2023-07-13T05:07:38;16.80;99.90
23873;DHT22;42884;50.718;4.630;2023-07-13T05:10:04;16.90;99.90
23873;DHT22;42884;50.718;4.630;2023-07-13T05:12:30;16.90;99.90
23873;DHT22;42884;50.718;4.630;2023-07-13T05:14:55;17.00;99.90
23873;DHT22;42884;50.718;4.630;2023-07-13T05:17:21;17.10;99.90
23873;DHT22;42884;50.718;4.630;2023-07-13T05:19:47;17.20;99.90
23873;DHT22;42884;50.718;4.630;2023-07-13T05:22:12;17.20;99.90
23873;DHT22;42884;50.718;4.630;2023-07-13T05:24:38;17.20;99.90
23873;DHT22;42884;50.718;4.630;2023-07-13T05:27:04;17.30;99.90
23873;DHT22;42884;50.718;4.630;2023-07-13T05:29:29;17.30;99.90
23873;DHT22;42884;50.718;4.630;2023-07-13T05:31:55;17.40;99.90
23873;DHT22;42884;50.718;4.630;2023-07-13T05:34:21;17.20;99.90
23873;DHT22;42884;50.718;4.630;2023-07-13T05:36:46;17.30;99.90
23873;DHT22;42884;50.718;4.630;2023-07-13T05:39:12;17.40;99.90
23873;DHT22;42884;50.718;4.630;2023-07-13T05:41:38;17.30;99.90
23873;DHT22;42884;50.718;4.630;2023-07-13T05:44:03;17.40;99.90
23873;DHT22;42884;50.718;4.630;2023-07-13T05:46:29;17.40;99.90
23873;DHT22;42884;50.718;4.630;2023-07-13T05:48:54;17.50;99.90
23873;DHT22;42884;50.718;4.630;2023-07-13T05:51:20;17.30;99.90
23873;DHT22;42884;50.718;4.630;2023-07-13T05:53:45;17.30;99.90
23873;DHT22;42884;50.718;4.630;2023-07-13T05:56:11;17.50;99.90
23873;DHT22;42884;50.718;4.630;2023-07-13T05:58:37;17.70;99.90
23873;DHT22;42884;50.718;4.630;2023-07-13T06:01:08;17.80;99.90
23873;DHT22;42884;50.718;4.630;2023-07-13T06:03:35;17.70;99.90
23873;DHT22;42884;50.718;4.630;2023-07-13T06:06:00;17.80;99.90
23873;DHT22;42884;50.718;4.630;2023-07-13T06:08:26;17.70;99.90
23873;DHT22;42884;50.718;4.630;2023-07-13T06:10:52;17.70;99.90
23873;DHT22;42884;50.718;4.630;2023-07-13T06:13:18;17.50;99.90
23873;DHT22;42884;50.718;4.630;2023-07-13T06:15:50;17.50;99.90
23873;DHT22;42884;50.718;4.630;2023-07-13T06:18:15;17.70;99.90
23873;DHT22;42884;50.718;4.630;2023-07-13T06:20:41;17.90;99.90
23873;DHT22;42884;50.718;4.630;2023-07-13T06:23:07;18.00;99.90
23873;DHT22;42884;50.718;4.630;2023-07-13T06:25:32;18.00;99.90
23873;DHT22;42884;50.718;4.630;2023-07-13T06:27:58;18.10;99.90
23873;DHT22;42884;50.718;4.630;2023-07-13T06:30:23;18.20;99.90
23873;DHT22;42884;50.718;4.630;2023-07-13T06:32:49;18.30;99.90
23873;DHT22;42884;50.718;4.630;2023-07-13T06:35:15;18.30;99.90
23873;DHT22;42884;50.718;4.630;2023-07-13T06:37:40;18.40;99.90
23873;DHT22;42884;50.718;4.630;2023-07-13T06:40:06;18.40;99.90
23873;DHT22;42884;50.718;4.630;2023-07-13T06:42:32;18.40;99.90
23873;DHT22;42884;50.718;4.630;2023-07-13T06:44:57;18.40;99.90
23873;DHT22;42884;50.718;4.630;2023-07-13T06:47:23;18.60;99.90
23873;DHT22;42884;50.718;4.630;2023-07-13T06:49:49;18.60;99.90
23873;DHT22;42884;50.718;4.630;2023-07-13T06:52:14;18.70;99.90
23873;DHT22;42884;50.718;4.630;2023-07-13T06:54:40;18.80;99.90
23873;DHT22;42884;50.718;4.630;2023-07-13T06:57:05;18.90;99.90
23873;DHT22;42884;50.718;4.630;2023-07-13T06:59:31;19.00;99.90
23873;DHT22;42884;50.718;4.630;2023-07-13T07:01:57;19.00;99.90
23873;DHT22;42884;50.718;4.630;2023-07-13T07:04:22;19.10;99.90
23873;DHT22;42884;50.718;4.630;2023-07-13T07:06:48;19.00;99.90
23873;DHT22;42884;50.718;4.630;2023-07-13T07:09:13;19.10;99.90
23873;DHT22;42884;50.718;4.630;2023-07-13T07:11:40;19.20;99.90
23873;DHT22;42884;50.718;4.630;2023-07-13T07:14:05;19.30;99.90
23873;DHT22;42884;50.718;4.630;2023-07-13T07:16:31;19.30;99.90
23873;DHT22;42884;50.718;4.630;2023-07-13T07:18:56;19.60;99.90
23873;DHT22;42884;50.718;4.630;2023-07-13T07:21:22;19.60;99.90
23873;DHT22;42884;50.718;4.630;2023-07-13T07:23:48;19.50;99.90
23873;DHT22;42884;50.718;4.630;2023-07-13T07:26:14;19.50;99.90
23873;DHT22;42884;50.718;4.630;2023-07-13T07:28:40;19.70;99.90
23873;DHT22;42884;50.718;4.630;2023-07-13T07:31:05;19.80;99.90
23873;DHT22;42884;50.718;4.630;2023-07-13T07:33:32;19.80;99.90
23873;DHT22;42884;50.718;4.630;2023-07-13T07:35:58;19.70;99.90
23873;DHT22;42884;50.718;4.630;2023-07-13T07:38:23;19.80;99.90
23873;DHT22;42884;50.718;4.630;2023-07-13T07:40:49;19.80;99.90
23873;DHT22;42884;50.718;4.630;2023-07-13T07:43:14;19.90;99.90
23873;DHT22;42884;50.718;4.630;2023-07-13T07:45:40;19.90;99.90
23873;DHT22;42884;50.718;4.630;2023-07-13T07:48:06;20.00;99.90
23873;DHT22;42884;50.718;4.630;2023-07-13T07:50:32;20.20;99.90
23873;DHT22;42884;50.718;4.630;2023-07-13T07:52:58;20.30;99.90
23873;DHT22;42884;50.718;4.630;2023-07-13T07:55:25;20.50;99.90
23873;DHT22;42884;50.718;4.630;2023-07-13T07:57:54;20.60;99.90
23873;DHT22;42884;50.718;4.630;2023-07-13T08:00:20;20.70;99.90
23873;DHT22;42884;50.718;4.630;2023-07-13T08:02:45;20.40;99.90
23873;DHT22;42884;50.718;4.630;2023-07-13T08:05:11;20.40;99.90
23873;DHT22;42884;50.718;4.630;2023-07-13T08:07:37;20.10;99.90
23873;DHT22;42884;50.718;4.630;2023-07-13T08:10:04;20.00;99.90
23873;DHT22;42884;50.718;4.630;2023-07-13T08:12:29;20.20;99.90
23873;DHT22;42884;50.718;4.630;2023-07-13T08:14:55;20.30;99.90
23873;DHT22;42884;50.718;4.630;2023-07-13T08:17:23;20.30;99.90
23873;DHT22;42884;50.718;4.630;2023-07-13T08:19:49;20.40;99.90
23873;DHT22;42884;50.718;4.630;2023-07-13T08:22:15;20.50;99.90
23873;DHT22;42884;50.718;4.630;2023-07-13T08:24:40;20.70;99.90
23873;DHT22;42884;50.718;4.630;2023-07-13T08:27:08;20.70;99.90
23873;DHT22;42884;50.718;4.630;2023-07-13T08:29:33;20.80;99.90
23873;DHT22;42884;50.718;4.630;2023-07-13T08:31:59;20.80;99.90
23873;DHT22;42884;50.718;4.630;2023-07-13T08:34:24;20.80;99.90
23873;DHT22;42884;50.718;4.630;2023-07-13T08:36:50;20.90;99.90
23873;DHT22;42884;50.718;4.630;2023-07-13T08:39:15;21.00;99.90
23873;DHT22;42884;50.718;4.630;2023-07-13T08:41:41;21.10;99.90
23873;DHT22;42884;50.718;4.630;2023-07-13T08:44:11;21.10;99.90
23873;DHT22;42884;50.718;4.630;2023-07-13T08:46:42;21.20;99.90
23873;DHT22;42884;50.718;4.630;2023-07-13T08:49:12;21.40;99.90
23873;DHT22;42884;50.718;4.630;2023-07-13T08:51:40;21.50;99.90
23873;DHT22;42884;50.718;4.630;2023-07-13T08:54:51;21.70;99.90
23873;DHT22;42884;50.718;4.630;2023-07-13T08:56:57;21.40;99.90
23873;DHT22;42884;50.718;4.630;2023-07-13T08:59:24;21.60;99.90
23873;DHT22;42884;50.718;4.630;2023-07-13T09:01:58;21.80;99.90
23873;DHT22;42884;50.718;4.630;2023-07-13T09:04:28;22.20;99.90
23873;DHT22;42884;50.718;4.630;2023-07-13T09:11:52;22.50;99.90
23873;DHT22;42884;50.718;4.630;2023-07-13T09:14:41;22.60;99.90
23873;DHT22;42884;50.718;4.630;2023-07-13T09:17:24;22.70;99.90
23873;DHT22;42884;50.718;4.630;2023-07-13T09:19:56;22.70;99.90
23873;DHT22;42884;50.718;4.630;2023-07-13T09:22:24;23.00;99.90
23873;DHT22;42884;50.718;4.630;2023-07-13T09:24:53;22.90;99.90
23873;DHT22;42884;50.718;4.630;2023-07-13T09:27:22;23.00;99.90
23873;DHT22;42884;50.718;4.630;2023-07-13T09:29:54;22.80;99.90
23873;DHT22;42884;50.718;4.630;2023-07-13T09:32:21;22.90;99.90
23873;DHT22;42884;50.718;4.630;2023-07-13T09:34:54;22.60;99.90
23873;DHT22;42884;50.718;4.630;2023-07-13T09:37:24;22.30;99.90
23873;DHT22;42884;50.718;4.630;2023-07-13T09:39:53;22.60;99.90
23873;DHT22;42884;50.718;4.630;2023-07-13T09:42:20;23.00;99.90
23873;DHT22;42884;50.718;4.630;2023-07-13T09:47:17;23.60;99.90
23873;DHT22;42884;50.718;4.630;2023-07-13T09:49:43;23.90;99.90
23873;DHT22;42884;50.718;4.630;2023-07-13T09:52:12;24.40;99.90
23873;DHT22;42884;50.718;4.630;2023-07-13T09:54:39;24.90;99.90
23873;DHT22;42884;50.718;4.630;2023-07-13T09:57:18;24.60;99.90
23873;DHT22;42884;50.718;4.630;2023-07-13T09:59:46;24.10;99.90
23873;DHT22;42884;50.718;4.630;2023-07-13T10:02:28;23.90;99.90
23873;DHT22;42884;50.718;4.630;2023-07-13T10:04:59;23.90;99.90
23873;DHT22;42884;50.718;4.630;2023-07-13T10:07:25;24.30;99.90
23873;DHT22;42884;50.718;4.630;2023-07-13T10:09:54;24.80;99.90
23873;DHT22;42884;50.718;4.630;2023-07-13T10:12:21;25.00;99.90
23873;DHT22;42884;50.718;4.630;2023-07-13T10:14:49;25.20;99.90
23873;DHT22;42884;50.718;4.630;2023-07-13T10:17:15;25.50;99.90
23873;DHT22;42884;50.718;4.630;2023-07-13T10:19:43;25.10;99.90
23873;DHT22;42884;50.718;4.630;2023-07-13T10:22:27;25.00;99.90
23873;DHT22;42884;50.718;4.630;2023-07-13T10:24:55;25.00;99.90
23873;DHT22;42884;50.718;4.630;2023-07-13T10:27:33;24.90;99.90
23873;DHT22;42884;50.718;4.630;2023-07-13T10:32:37;25.20;99.90
23873;DHT22;42884;50.718;4.630;2023-07-13T10:35:03;25.00;99.90
23873;DHT22;42884;50.718;4.630;2023-07-13T10:37:49;25.10;99.90
23873;DHT22;42884;50.718;4.630;2023-07-13T10:40:16;25.40;99.90
23873;DHT22;42884;50.718;4.630;2023-07-13T10:42:44;25.50;99.90
23873;DHT22;42884;50.718;4.630;2023-07-13T10:45:12;26.10;99.90
23873;DHT22;42884;50.718;4.630;2023-07-13T10:47:38;26.10;99.90
23873;DHT22;42884;50.718;4.630;2023-07-13T10:50:05;26.00;99.90
23873;DHT22;42884;50.718;4.630;2023-07-13T10:52:50;26.10;99.90
23873;DHT22;42884;50.718;4.630;2023-07-13T11:03:22;26.60;99.90
23873;DHT22;42884;50.718;4.630;2023-07-13T11:05:49;26.50;99.90
23873;DHT22;42884;50.718;4.630;2023-07-13T11:08:21;26.70;99.90
23873;DHT22;42884;50.718;4.630;2023-07-13T11:10:57;26.70;99.90
23873;DHT22;42884;50.718;4.630;2023-07-13T11:13:36;26.20;99.90
23873;DHT22;42884;50.718;4.630;2023-07-13T11:16:12;26.00;99.90
23873;DHT22;42884;50.718;4.630;2023-07-13T11:18:38;25.40;99.90
23873;DHT22;42884;50.718;4.630;2023-07-13T11:21:20;25.40;99.90
23873;DHT22;42884;50.718;4.630;2023-07-13T11:23:53;25.50;99.90
23873;DHT22;42884;50.718;4.630;2023-07-13T11:29:20;25.90;99.90
23873;DHT22;42884;50.718;4.630;2023-07-13T11:31:51;26.10;99.90
23873;DHT22;42884;50.718;4.630;2023-07-13T11:34:19;26.20;99.90
23873;DHT22;42884;50.718;4.630;2023-07-13T11:36:46;26.40;99.90
23873;DHT22;42884;50.718;4.630;2023-07-13T11:39:16;26.40;99.90
23873;DHT22;42884;50.718;4.630;2023-07-13T11:41:53;26.50;99.90
23873;DHT22;42884;50.718;4.630;2023-07-13T11:44:21;27.10;99.90
23873;DHT22;42884;50.718;4.630;2023-07-13T11:46:48;27.50;99.90
23873;DHT22;42884;50.718;4.630;2023-07-13T11:49:16;27.70;99.90
23873;DHT22;42884;50.718;4.630;2023-07-13T11:51:42;27.60;99.90
23873;DHT22;42884;50.718;4.630;2023-07-13T11:54:21;27.20;99.90
23873;DHT22;42884;50.718;4.630;2023-07-13T11:56:48;26.80;99.90
23873;DHT22;42884;50.718;4.630;2023-07-13T11:59:14;26.60;99.90
23873;DHT22;42884;50.718;4.630;2023-07-13T12:01:44;26.20;99.90
23873;DHT22;42884;50.718;4.630;2023-07-13T12:04:19;26.40;99.90
23873;DHT22;42884;50.718;4.630;2023-07-13T12:06:46;26.30;99.90
23873;DHT22;42884;50.718;4.630;2023-07-13T12:09:18;26.30;99.90
23873;DHT22;42884;50.718;4.630;2023-07-13T12:11:45;26.20;99.90
23873;DHT22;42884;50.718;4.630;2023-07-13T12:14:17;26.10;99.90
23873;DHT22;42884;50.718;4.630;2023-07-13T12:16:44;26.00;99.90
23873;DHT22;42884;50.718;4.630;2023-07-13T12:19:43;26.10;99.90
23873;DHT22;42884;50.718;4.630;2023-07-13T12:22:02;26.00;99.90
23873;DHT22;42884;50.718;4.630;2023-07-13T12:24:27;25.80;99.90
23873;DHT22;42884;50.718;4.630;2023-07-13T12:26:54;25.60;99.90
23873;DHT22;42884;50.718;4.630;2023-07-13T12:29:20;25.60;99.90
23873;DHT22;42884;50.718;4.630;2023-07-13T12:31:47;25.80;99.90
23873;DHT22;42884;50.718;4.630;2023-07-13T12:34:13;26.00;99.90
23873;DHT22;42884;50.718;4.630;2023-07-13T12:36:46;26.30;99.90
23873;DHT22;42884;50.718;4.630;2023-07-13T12:39:23;26.40;99.90
23873;DHT22;42884;50.718;4.630;2023-07-13T12:41:52;26.40;99.90
23873;DHT22;42884;50.718;4.630;2023-07-13T12:44:20;26.60;99.90
23873;DHT22;42884;50.718;4.630;2023-07-13T12:46:55;26.90;99.90
23873;DHT22;42884;50.718;4.630;2023-07-13T12:49:27;26.60;99.90
23873;DHT22;42884;50.718;4.630;2023-07-13T12:51:57;26.10;99.90
23873;DHT22;42884;50.718;4.630;2023-07-13T12:54:24;26.00;99.90
23873;DHT22;42884;50.718;4.630;2023-07-13T12:56:50;25.70;99.90
23873;DHT22;42884;50.718;4.630;2023-07-13T12:59:18;25.60;99.90
23873;DHT22;42884;50.718;4.630;2023-07-13T13:01:45;25.40;99.90
23873;DHT22;42884;50.718;4.630;2023-07-13T13:04:11;25.40;99.90
23873;DHT22;42884;50.718;4.630;2023-07-13T13:06:38;25.40;99.90
23873;DHT22;42884;50.718;4.630;2023-07-13T13:09:09;25.20;99.90
23873;DHT22;42884;50.718;4.630;2023-07-13T13:11:36;25.00;99.90
23873;DHT22;42884;50.718;4.630;2023-07-13T13:14:03;25.20;99.90
23873;DHT22;42884;50.718;4.630;2023-07-13T13:16:30;25.20;99.90
23873;DHT22;42884;50.718;4.630;2023-07-13T13:18:57;25.20;99.90
23873;DHT22;42884;50.718;4.630;2023-07-13T13:21:24;25.10;99.90
23873;DHT22;42884;50.718;4.630;2023-07-13T13:23:50;25.20;99.90
23873;DHT22;42884;50.718;4.630;2023-07-13T13:26:17;25.10;99.90
23873;DHT22;42884;50.718;4.630;2023-07-13T13:28:43;25.00;99.90
23873;DHT22;42884;50.718;4.630;2023-07-13T13:31:13;24.80;99.90
23873;DHT22;42884;50.718;4.630;2023-07-13T13:33:39;24.70;99.90
23873;DHT22;42884;50.718;4.630;2023-07-13T13:36:13;24.90;99.90
23873;DHT22;42884;50.718;4.630;2023-07-13T13:38:39;25.30;99.90
23873;DHT22;42884;50.718;4.630;2023-07-13T13:41:05;25.80;99.90
23873;DHT22;42884;50.718;4.630;2023-07-13T13:43:31;25.80;99.90
23873;DHT22;42884;50.718;4.630;2023-07-13T13:45:58;26.00;99.90
23873;DHT22;42884;50.718;4.630;2023-07-13T13:48:34;26.00;99.90
23873;DHT22;42884;50.718;4.630;2023-07-13T13:51:01;26.40;99.90
23873;DHT22;42884;50.718;4.630;2023-07-13T13:53:31;26.70;99.90
23873;DHT22;42884;50.718;4.630;2023-07-13T13:55:57;26.70;99.90
23873;DHT22;42884;50.718;4.630;2023-07-13T13:58:22;26.70;99.90
23873;DHT22;42884;50.718;4.630;2023-07-13T14:00:48;26.60;99.90
23873;DHT22;42884;50.718;4.630;2023-07-13T14:03:17;26.10;99.90
23873;DHT22;42884;50.718;4.630;2023-07-13T14:05:43;25.80;99.90
23873;DHT22;42884;50.718;4.630;2023-07-13T14:08:16;25.70;99.90
23873;DHT22;42884;50.718;4.630;2023-07-13T14:10:43;25.90;99.90
23873;DHT22;42884;50.718;4.630;2023-07-13T14:13:15;26.00;99.90
23873;DHT22;42884;50.718;4.630;2023-07-13T14:15:42;26.10;99.90
23873;DHT22;42884;50.718;4.630;2023-07-13T14:18:08;26.30;99.90
23873;DHT22;42884;50.718;4.630;2023-07-13T14:20:34;26.60;99.90
23873;DHT22;42884;50.718;4.630;2023-07-13T14:23:00;26.90;99.90
23873;DHT22;42884;50.718;4.630;2023-07-13T14:25:25;27.20;99.90
23873;DHT22;42884;50.718;4.630;2023-07-13T14:27:53;27.10;99.90
23873;DHT22;42884;50.718;4.630;2023-07-13T14:30:19;27.20;99.40
23873;DHT22;42884;50.718;4.630;2023-07-13T14:32:46;26.80;98.70
23873;DHT22;42884;50.718;4.630;2023-07-13T14:35:12;26.60;99.00
23873;DHT22;42884;50.718;4.630;2023-07-13T14:37:38;26.60;99.90
23873;DHT22;42884;50.718;4.630;2023-07-13T14:40:14;26.50;99.20
23873;DHT22;42884;50.718;4.630;2023-07-13T14:42:40;26.30;99.20
23873;DHT22;42884;50.718;4.630;2023-07-13T14:45:11;26.10;99.40
23873;DHT22;42884;50.718;4.630;2023-07-13T14:47:37;25.80;99.70
23873;DHT22;42884;50.718;4.630;2023-07-13T14:50:03;25.70;99.90
23873;DHT22;42884;50.718;4.630;2023-07-13T14:52:30;25.60;99.90
23873;DHT22;42884;50.718;4.630;2023-07-13T14:54:56;25.30;99.90
23873;DHT22;42884;50.718;4.630;2023-07-13T14:57:21;25.30;99.90
23873;DHT22;42884;50.718;4.630;2023-07-13T14:59:47;25.20;99.90
23873;DHT22;42884;50.718;4.630;2023-07-13T15:02:27;25.30;99.90
23873;DHT22;42884;50.718;4.630;2023-07-13T15:04:53;25.50;99.90
23873;DHT22;42884;50.718;4.630;2023-07-13T15:07:19;25.50;99.90
23873;DHT22;42884;50.718;4.630;2023-07-13T15:09:46;25.50;99.90
23873;DHT22;42884;50.718;4.630;2023-07-13T15:12:13;25.60;99.90
23873;DHT22;42884;50.718;4.630;2023-07-13T15:14:38;25.60;99.90
23873;DHT22;42884;50.718;4.630;2023-07-13T15:17:04;25.50;99.90
23873;DHT22;42884;50.718;4.630;2023-07-13T15:19:30;25.30;99.90
23873;DHT22;42884;50.718;4.630;2023-07-13T15:21:56;25.00;99.90
23873;DHT22;42884;50.718;4.630;2023-07-13T15:24:23;24.80;99.90
23873;DHT22;42884;50.718;4.630;2023-07-13T15:26:48;24.80;99.90
23873;DHT22;42884;50.718;4.630;2023-07-13T15:29:17;24.90;99.90
23873;DHT22;42884;50.718;4.630;2023-07-13T15:31:43;24.60;99.90
23873;DHT22;42884;50.718;4.630;2023-07-13T15:34:12;24.40;99.90
23873;DHT22;42884;50.718;4.630;2023-07-13T15:36:38;24.40;99.90
23873;DHT22;42884;50.718;4.630;2023-07-13T15:39:04;24.60;99.90
23873;DHT22;42884;50.718;4.630;2023-07-13T15:41:29;24.60;99.90
23873;DHT22;42884;50.718;4.630;2023-07-13T15:43:57;24.60;99.90
23873;DHT22;42884;50.718;4.630;2023-07-13T15:46:23;24.30;99.90
23873;DHT22;42884;50.718;4.630;2023-07-13T15:48:52;24.60;99.90
23873;DHT22;42884;50.718;4.630;2023-07-13T15:53:47;25.30;99.90